sensor_id;sensor_type;location;lat;lon;timestamp;P1;durP1;ratioP1;P2;durP2;ratioP2
45863;SDS011;31579;52.354;16.974;2023-04-24T00:02:32;25.50;;;17.10;;
45863;SDS011;31579;52.354;16.974;2023-04-24T00:07:32;25.50;;;17.10;;
45863;SDS011;31579;52.354;16.974;2023-04-24T00:12:32;23.30;;;16.10;;
45863;SDS011;31579;52.354;16.974;2023-04-24T00:17:32;23.30;;;16.10;;
45863;SDS011;31579;52.354;16.974;2023-04-24T00:22:32;23.90;;;15.90;;
45863;SDS011;31579;52.354;16.974;2023-04-24T00:27:32;23.90;;;15.90;;
45863;SDS011;31579;52.354;16.974;2023-04-24T00:32:32;26.30;;;18.20;;
45863;SDS011;31579;52.354;16.974;2023-04-24T00:37:32;26.30;;;18.20;;
45863;SDS011;31579;52.354;16.974;2023-04-24T00:42:32;24.50;;;15.90;;
45863;SDS011;31579;52.354;16.974;2023-04-24T00:47:34;24.50;;;15.90;;
45863;SDS011;31579;52.354;16.974;2023-04-24T00:52:32;20.70;;;14.30;;
45863;SDS011;31579;52.354;16.974;2023-04-24T00:57:32;20.70;;;14.30;;
45863;SDS011;31579;52.354;16.974;2023-04-24T01:02:32;20.70;;;14.30;;
45863;SDS011;31579;52.354;16.974;2023-04-24T01:07:32;25.00;;;17.60;;
45863;SDS011;31579;52.354;16.974;2023-04-24T01:12:32;25.80;;;16.60;;
45863;SDS011;31579;52.354;16.974;2023-04-24T01:17:32;25.80;;;16.60;;
45863;SDS011;31579;52.354;16.974;2023-04-24T01:22:33;26.70;;;18.30;;
45863;SDS011;31579;52.354;16.974;2023-04-24T01:27:32;26.70;;;18.30;;
45863;SDS011;31579;52.354;16.974;2023-04-24T01:32:32;26.90;;;17.10;;
45863;SDS011;31579;52.354;16.974;2023-04-24T01:37:32;26.90;;;17.10;;
45863;SDS011;31579;52.354;16.974;2023-04-24T01:42:32;29.10;;;17.90;;
45863;SDS011;31579;52.354;16.974;2023-04-24T01:47:32;29.10;;;17.90;;
45863;SDS011;31579;52.354;16.974;2023-04-24T01:52:32;27.00;;;17.20;;
45863;SDS011;31579;52.354;16.974;2023-04-24T01:55:49;27.00;;;17.20;;
45863;SDS011;31579;52.354;16.974;2023-04-24T02:00:47;27.00;;;17.20;;
45863;SDS011;31579;52.354;16.974;2023-04-24T02:05:47;30.10;;;19.80;;
45863;SDS011;31579;52.354;16.974;2023-04-24T02:10:47;30.10;;;19.80;;
45863;SDS011;31579;52.354;16.974;2023-04-24T02:15:47;31.10;;;20.70;;
45863;SDS011;31579;52.354;16.974;2023-04-24T02:20:47;31.10;;;20.70;;
45863;SDS011;31579;52.354;16.974;2023-04-24T02:24:46;31.90;;;19.20;;
45863;SDS011;31579;52.354;16.974;2023-04-24T02:29:55;31.90;;;19.20;;
45863;SDS011;31579;52.354;16.974;2023-04-24T02:34:53;29.00;;;18.60;;
45863;SDS011;31579;52.354;16.974;2023-04-24T02:39:53;29.00;;;18.60;;
45863;SDS011;31579;52.354;16.974;2023-04-24T02:44:53;22.90;;;15.60;;
45863;SDS011;31579;52.354;16.974;2023-04-24T02:49:53;22.90;;;15.60;;
45863;SDS011;31579;52.354;16.974;2023-04-24T02:54:53;27.60;;;17.90;;
45863;SDS011;31579;52.354;16.974;2023-04-24T02:59:53;27.60;;;17.90;;
45863;SDS011;31579;52.354;16.974;2023-04-24T03:04:53;39.40;;;21.00;;
45863;SDS011;31579;52.354;16.974;2023-04-24T03:09:53;39.40;;;21.00;;
45863;SDS011;31579;52.354;16.974;2023-04-24T03:14:55;34.90;;;18.60;;
45863;SDS011;31579;52.354;16.974;2023-04-24T03:19:53;34.90;;;18.60;;
45863;SDS011;31579;52.354;16.974;2023-04-24T03:24:53;26.50;;;16.00;;
45863;SDS011;31579;52.354;16.974;2023-04-24T03:29:53;26.50;;;16.00;;
45863;SDS011;31579;52.354;16.974;2023-04-24T03:34:53;25.10;;;16.20;;
45863;SDS011;31579;52.354;16.974;2023-04-24T03:39:53;25.10;;;16.20;;
45863;SDS011;31579;52.354;16.974;2023-04-24T03:44:53;32.30;;;18.60;;
45863;SDS011;31579;52.354;16.974;2023-04-24T03:49:53;32.30;;;18.60;;
45863;SDS011;31579;52.354;16.974;2023-04-24T03:54:53;27.60;;;16.00;;
45863;SDS011;31579;52.354;16.974;2023-04-24T03:59:53;27.60;;;16.00;;
45863;SDS011;31579;52.354;16.974;2023-04-24T04:04:53;33.10;;;19.40;;
45863;SDS011;31579;52.354;16.974;2023-04-24T04:09:53;33.10;;;19.40;;
45863;SDS011;31579;52.354;16.974;2023-04-24T04:14:53;24.70;;;16.40;;
45863;SDS011;31579;52.354;16.974;2023-04-24T04:19:54;24.70;;;16.40;;
45863;SDS011;31579;52.354;16.974;2023-04-24T04:24:53;31.40;;;21.60;;
45863;SDS011;31579;52.354;16.974;2023-04-24T04:29:53;31.40;;;21.60;;
45863;SDS011;31579;52.354;16.974;2023-04-24T04:34:53;31.10;;;19.30;;
45863;SDS011;31579;52.354;16.974;2023-04-24T04:39:53;31.10;;;19.30;;
45863;SDS011;31579;52.354;16.974;2023-04-24T04:44:53;31.10;;;19.70;;
45863;SDS011;31579;52.354;16.974;2023-04-24T04:49:53;31.10;;;19.70;;
45863;SDS011;31579;52.354;16.974;2023-04-24T04:54:53;27.00;;;18.70;;
45863;SDS011;31579;52.354;16.974;2023-04-24T04:59:53;27.00;;;18.70;;
45863;SDS011;31579;52.354;16.974;2023-04-24T05:04:53;26.30;;;16.80;;
45863;SDS011;31579;52.354;16.974;2023-04-24T05:09:53;26.30;;;16.80;;
45863;SDS011;31579;52.354;16.974;2023-04-24T05:14:53;19.90;;;15.00;;
45863;SDS011;31579;52.354;16.974;2023-04-24T05:19:53;19.90;;;15.00;;
45863;SDS011;31579;52.354;16.974;2023-04-24T05:24:53;23.00;;;16.10;;
45863;SDS011;31579;52.354;16.974;2023-04-24T05:29:53;23.00;;;16.10;;
45863;SDS011;31579;52.354;16.974;2023-04-24T05:34:53;19.50;;;13.60;;
45863;SDS011;31579;52.354;16.974;2023-04-24T05:39:53;19.50;;;13.60;;
45863;SDS011;31579;52.354;16.974;2023-04-24T05:44:53;17.60;;;12.00;;
45863;SDS011;31579;52.354;16.974;2023-04-24T05:49:53;17.60;;;12.00;;
45863;SDS011;31579;52.354;16.974;2023-04-24T05:54:53;18.00;;;12.30;;
45863;SDS011;31579;52.354;16.974;2023-04-24T05:59:53;18.00;;;12.30;;
45863;SDS011;31579;52.354;16.974;2023-04-24T06:04:53;17.80;;;11.70;;
45863;SDS011;31579;52.354;16.974;2023-04-24T06:09:56;17.80;;;11.70;;
45863;SDS011;31579;52.354;16.974;2023-04-24T06:14:53;16.10;;;11.80;;
45863;SDS011;31579;52.354;16.974;2023-04-24T06:19:53;16.10;;;11.80;;
45863;SDS011;31579;52.354;16.974;2023-04-24T06:24:53;17.50;;;11.80;;
45863;SDS011;31579;52.354;16.974;2023-04-24T06:29:53;17.50;;;11.80;;
45863;SDS011;31579;52.354;16.974;2023-04-24T06:34:53;15.00;;;11.10;;
45863;SDS011;31579;52.354;16.974;2023-04-24T06:39:53;15.00;;;11.10;;
45863;SDS011;31579;52.354;16.974;2023-04-24T06:44:53;19.10;;;12.60;;
45863;SDS011;31579;52.354;16.974;2023-04-24T06:49:53;19.10;;;12.60;;
45863;SDS011;31579;52.354;16.974;2023-04-24T06:54:59;16.90;;;10.80;;
45863;SDS011;31579;52.354;16.974;2023-04-24T06:59:53;16.90;;;10.80;;
45863;SDS011;31579;52.354;16.974;2023-04-24T07:04:53;16.90;;;11.30;;
45863;SDS011;31579;52.354;16.974;2023-04-24T07:09:53;16.90;;;11.30;;
45863;SDS011;31579;52.354;16.974;2023-04-24T07:14:55;15.40;;;10.70;;
45863;SDS011;31579;52.354;16.974;2023-04-24T07:19:53;15.40;;;10.70;;
45863;SDS011;31579;52.354;16.974;2023-04-24T07:23:25;14.00;;;10.50;;
45863;SDS011;31579;52.354;16.974;2023-04-24T07:28:23;14.00;;;10.50;;
45863;SDS011;31579;52.354;16.974;2023-04-24T07:33:23;15.00;;;10.40;;
45863;SDS011;31579;52.354;16.974;2023-04-24T07:38:23;15.00;;;10.40;;
45863;SDS011;31579;52.354;16.974;2023-04-24T07:43:34;14.20;;;9.70;;
45863;SDS011;31579;52.354;16.974;2023-04-24T07:48:32;14.20;;;9.70;;
45863;SDS011;31579;52.354;16.974;2023-04-24T07:53:32;14.40;;;9.30;;
45863;SDS011;31579;52.354;16.974;2023-04-24T07:58:32;14.40;;;9.30;;
45863;SDS011;31579;52.354;16.974;2023-04-24T08:03:32;12.20;;;8.20;;
45863;SDS011;31579;52.354;16.974;2023-04-24T08:08:32;12.20;;;8.20;;
45863;SDS011;31579;52.354;16.974;2023-04-24T08:13:32;11.70;;;8.40;;
45863;SDS011;31579;52.354;16.974;2023-04-24T08:18:32;11.70;;;8.40;;
45863;SDS011;31579;52.354;16.974;2023-04-24T08:23:32;10.90;;;8.00;;
45863;SDS011;31579;52.354;16.974;2023-04-24T08:28:32;10.90;;;8.00;;
45863;SDS011;31579;52.354;16.974;2023-04-24T08:33:32;12.30;;;8.30;;
45863;SDS011;31579;52.354;16.974;2023-04-24T08:38:32;12.30;;;8.30;;
45863;SDS011;31579;52.354;16.974;2023-04-24T08:43:32;15.60;;;9.20;;
45863;SDS011;31579;52.354;16.974;2023-04-24T08:48:32;15.60;;;9.20;;
45863;SDS011;31579;52.354;16.974;2023-04-24T08:53:32;12.80;;;8.50;;
45863;SDS011;31579;52.354;16.974;2023-04-24T08:58:32;12.80;;;8.50;;
45863;SDS011;31579;52.354;16.974;2023-04-24T09:03:35;14.60;;;9.40;;
45863;SDS011;31579;52.354;16.974;2023-04-24T09:08:33;14.60;;;9.40;;
45863;SDS011;31579;52.354;16.974;2023-04-24T09:10:07;14.60;;;9.40;;
45863;SDS011;31579;52.354;16.974;2023-04-24T09:15:06;13.20;;;9.20;;
45863;SDS011;31579;52.354;16.974;2023-04-24T09:20:05;13.20;;;9.20;;
45863;SDS011;31579;52.354;16.974;2023-04-24T09:25:06;13.80;;;9.70;;
45863;SDS011;31579;52.354;16.974;2023-04-24T09:26:14;13.80;;;9.70;;
45863;SDS011;31579;52.354;16.974;2023-04-24T09:31:13;13.80;;;9.70;;
45863;SDS011;31579;52.354;16.974;2023-04-24T09:36:12;12.90;;;8.70;;
45863;SDS011;31579;52.354;16.974;2023-04-24T09:41:13;12.90;;;8.70;;
45863;SDS011;31579;52.354;16.974;2023-04-24T09:46:12;13.50;;;9.70;;
45863;SDS011;31579;52.354;16.974;2023-04-24T09:51:12;13.50;;;9.70;;
45863;SDS011;31579;52.354;16.974;2023-04-24T09:56:14;11.50;;;8.20;;
45863;SDS011;31579;52.354;16.974;2023-04-24T10:01:12;11.50;;;8.20;;
45863;SDS011;31579;52.354;16.974;2023-04-24T10:06:12;9.80;;;6.90;;
45863;SDS011;31579;52.354;16.974;2023-04-24T10:11:12;9.80;;;6.90;;
45863;SDS011;31579;52.354;16.974;2023-04-24T10:16:12;10.30;;;7.10;;
45863;SDS011;31579;52.354;16.974;2023-04-24T10:21:12;10.30;;;7.10;;
45863;SDS011;31579;52.354;16.974;2023-04-24T10:26:12;8.30;;;6.20;;
45863;SDS011;31579;52.354;16.974;2023-04-24T10:31:13;8.30;;;6.20;;
45863;SDS011;31579;52.354;16.974;2023-04-24T10:36:12;7.50;;;5.20;;
45863;SDS011;31579;52.354;16.974;2023-04-24T10:41:12;7.50;;;5.20;;
45863;SDS011;31579;52.354;16.974;2023-04-24T10:46:16;7.30;;;5.40;;
45863;SDS011;31579;52.354;16.974;2023-04-24T10:51:12;7.30;;;5.40;;
45863;SDS011;31579;52.354;16.974;2023-04-24T10:56:15;8.00;;;5.90;;
45863;SDS011;31579;52.354;16.974;2023-04-24T11:02:35;8.10;;;6.50;;
45863;SDS011;31579;52.354;16.974;2023-04-24T11:07:21;8.10;;;6.50;;
45863;SDS011;31579;52.354;16.974;2023-04-24T11:12:21;9.10;;;6.30;;
45863;SDS011;31579;52.354;16.974;2023-04-24T11:22:22;6.70;;;5.80;;
45863;SDS011;31579;52.354;16.974;2023-04-24T11:27:21;6.70;;;5.80;;
45863;SDS011;31579;52.354;16.974;2023-04-24T11:37:21;5.60;;;3.50;;
45863;SDS011;31579;52.354;16.974;2023-04-24T11:42:21;3.90;;;2.50;;
45863;SDS011;31579;52.354;16.974;2023-04-24T11:52:21;4.10;;;2.70;;
45863;SDS011;31579;52.354;16.974;2023-04-24T11:57:23;4.10;;;2.70;;
45863;SDS011;31579;52.354;16.974;2023-04-24T12:07:21;5.30;;;3.10;;
45863;SDS011;31579;52.354;16.974;2023-04-24T12:12:23;5.70;;;3.20;;
45863;SDS011;31579;52.354;16.974;2023-04-24T12:22:21;5.70;;;3.20;;
45863;SDS011;31579;52.354;16.974;2023-04-24T12:27:21;4.60;;;3.40;;
45863;SDS011;31579;52.354;16.974;2023-04-24T12:32:21;4.90;;;3.40;;
45863;SDS011;31579;52.354;16.974;2023-04-24T12:37:24;4.90;;;3.40;;
45863;SDS011;31579;52.354;16.974;2023-04-24T12:42:25;5.60;;;3.80;;
45863;SDS011;31579;52.354;16.974;2023-04-24T12:47:21;5.60;;;3.80;;
45863;SDS011;31579;52.354;16.974;2023-04-24T12:52:21;5.80;;;2.70;;
45863;SDS011;31579;52.354;16.974;2023-04-24T12:57:21;5.80;;;2.70;;
45863;SDS011;31579;52.354;16.974;2023-04-24T13:02:21;4.10;;;2.30;;
45863;SDS011;31579;52.354;16.974;2023-04-24T13:07:24;4.10;;;2.30;;
45863;SDS011;31579;52.354;16.974;2023-04-24T13:12:21;3.60;;;2.50;;
45863;SDS011;31579;52.354;16.974;2023-04-24T13:17:21;3.60;;;2.50;;
45863;SDS011;31579;52.354;16.974;2023-04-24T13:22:24;5.10;;;2.00;;
45863;SDS011;31579;52.354;16.974;2023-04-24T13:27:21;5.10;;;2.00;;
45863;SDS011;31579;52.354;16.974;2023-04-24T13:32:21;3.60;;;1.90;;
45863;SDS011;31579;52.354;16.974;2023-04-24T13:37:21;3.60;;;1.90;;
45863;SDS011;31579;52.354;16.974;2023-04-24T13:42:21;5.40;;;1.80;;
45863;SDS011;31579;52.354;16.974;2023-04-24T13:47:21;5.40;;;1.80;;
45863;SDS011;31579;52.354;16.974;2023-04-24T13:52:21;4.10;;;1.90;;
45863;SDS011;31579;52.354;16.974;2023-04-24T13:57:21;4.10;;;1.90;;
45863;SDS011;31579;52.354;16.974;2023-04-24T14:02:21;4.90;;;1.50;;
45863;SDS011;31579;52.354;16.974;2023-04-24T14:03:04;4.90;;;1.50;;
45863;SDS011;31579;52.354;16.974;2023-04-24T14:08:03;4.90;;;1.50;;
45863;SDS011;31579;52.354;16.974;2023-04-24T14:13:03;2.30;;;0.90;;
45863;SDS011;31579;52.354;16.974;2023-04-24T14:18:03;2.30;;;0.90;;
45863;SDS011;31579;52.354;16.974;2023-04-24T14:22:33;2.70;;;1.10;;
45863;SDS011;31579;52.354;16.974;2023-04-24T14:27:31;2.70;;;1.10;;
45863;SDS011;31579;52.354;16.974;2023-04-24T14:32:31;3.00;;;1.10;;
45863;SDS011;31579;52.354;16.974;2023-04-24T14:37:31;3.00;;;1.10;;
45863;SDS011;31579;52.354;16.974;2023-04-24T14:42:31;2.90;;;1.20;;
45863;SDS011;31579;52.354;16.974;2023-04-24T14:47:31;2.90;;;1.20;;
45863;SDS011;31579;52.354;16.974;2023-04-24T14:52:34;3.30;;;1.70;;
45863;SDS011;31579;52.354;16.974;2023-04-24T14:54:37;3.30;;;1.70;;
45863;SDS011;31579;52.354;16.974;2023-04-24T14:59:35;3.30;;;1.70;;
45863;SDS011;31579;52.354;16.974;2023-04-24T15:04:35;4.10;;;1.70;;
45863;SDS011;31579;52.354;16.974;2023-04-24T15:09:35;4.10;;;1.70;;
45863;SDS011;31579;52.354;16.974;2023-04-24T15:11:57;4.80;;;2.10;;
45863;SDS011;31579;52.354;16.974;2023-04-24T15:14:18;4.80;;;2.10;;
45863;SDS011;31579;52.354;16.974;2023-04-24T15:19:17;4.80;;;2.10;;
45863;SDS011;31579;52.354;16.974;2023-04-24T15:24:17;4.30;;;2.30;;
45863;SDS011;31579;52.354;16.974;2023-04-24T15:29:17;4.30;;;2.30;;
45863;SDS011;31579;52.354;16.974;2023-04-24T15:34:17;5.80;;;3.00;;
45863;SDS011;31579;52.354;16.974;2023-04-24T15:39:04;5.80;;;3.00;;
45863;SDS011;31579;52.354;16.974;2023-04-24T15:44:02;6.30;;;3.00;;
45863;SDS011;31579;52.354;16.974;2023-04-24T15:49:02;6.30;;;3.00;;
45863;SDS011;31579;52.354;16.974;2023-04-24T15:54:02;5.80;;;2.70;;
45863;SDS011;31579;52.354;16.974;2023-04-24T15:59:02;5.80;;;2.70;;
45863;SDS011;31579;52.354;16.974;2023-04-24T16:04:02;4.40;;;2.60;;
45863;SDS011;31579;52.354;16.974;2023-04-24T16:09:05;4.40;;;2.60;;
45863;SDS011;31579;52.354;16.974;2023-04-24T16:14:02;4.50;;;2.30;;
45863;SDS011;31579;52.354;16.974;2023-04-24T16:19:02;4.50;;;2.30;;
45863;SDS011;31579;52.354;16.974;2023-04-24T16:24:02;4.60;;;2.70;;
45863;SDS011;31579;52.354;16.974;2023-04-24T16:29:02;4.60;;;2.70;;
45863;SDS011;31579;52.354;16.974;2023-04-24T16:34:02;5.50;;;2.90;;
45863;SDS011;31579;52.354;16.974;2023-04-24T16:39:02;5.50;;;2.90;;
45863;SDS011;31579;52.354;16.974;2023-04-24T16:44:02;5.70;;;3.00;;
45863;SDS011;31579;52.354;16.974;2023-04-24T16:44:13;5.70;;;3.00;;
45863;SDS011;31579;52.354;16.974;2023-04-24T16:49:11;5.70;;;3.00;;
45863;SDS011;31579;52.354;16.974;2023-04-24T16:54:11;6.40;;;3.00;;
45863;SDS011;31579;52.354;16.974;2023-04-24T16:59:11;6.40;;;3.00;;
45863;SDS011;31579;52.354;16.974;2023-04-24T17:04:11;5.20;;;2.20;;
45863;SDS011;31579;52.354;16.974;2023-04-24T17:09:11;5.20;;;2.20;;
45863;SDS011;31579;52.354;16.974;2023-04-24T17:14:12;5.80;;;2.30;;
45863;SDS011;31579;52.354;16.974;2023-04-24T17:19:11;5.80;;;2.30;;
45863;SDS011;31579;52.354;16.974;2023-04-24T17:24:11;4.50;;;2.40;;
45863;SDS011;31579;52.354;16.974;2023-04-24T17:29:12;4.50;;;2.40;;
45863;SDS011;31579;52.354;16.974;2023-04-24T17:33:32;8.20;;;3.50;;
45863;SDS011;31579;52.354;16.974;2023-04-24T17:38:30;8.20;;;3.50;;
45863;SDS011;31579;52.354;16.974;2023-04-24T17:43:30;5.30;;;2.80;;
45863;SDS011;31579;52.354;16.974;2023-04-24T17:48:30;5.30;;;2.80;;
45863;SDS011;31579;52.354;16.974;2023-04-24T17:53:30;7.00;;;2.50;;
45863;SDS011;31579;52.354;16.974;2023-04-24T17:58:30;7.00;;;2.50;;
45863;SDS011;31579;52.354;16.974;2023-04-24T18:03:34;6.00;;;2.80;;
45863;SDS011;31579;52.354;16.974;2023-04-24T18:08:30;6.00;;;2.80;;
45863;SDS011;31579;52.354;16.974;2023-04-24T18:13:30;6.90;;;2.60;;
45863;SDS011;31579;52.354;16.974;2023-04-24T18:18:30;6.90;;;2.60;;
45863;SDS011;31579;52.354;16.974;2023-04-24T18:22:52;7.40;;;3.10;;
45863;SDS011;31579;52.354;16.974;2023-04-24T18:27:51;7.40;;;3.10;;
45863;SDS011;31579;52.354;16.974;2023-04-24T18:32:51;6.00;;;2.70;;
45863;SDS011;31579;52.354;16.974;2023-04-24T18:37:51;6.00;;;2.70;;
45863;SDS011;31579;52.354;16.974;2023-04-24T18:42:51;7.00;;;2.60;;
45863;SDS011;31579;52.354;16.974;2023-04-24T18:47:51;7.00;;;2.60;;
45863;SDS011;31579;52.354;16.974;2023-04-24T18:52:53;6.00;;;2.70;;
45863;SDS011;31579;52.354;16.974;2023-04-24T18:57:51;6.00;;;2.70;;
45863;SDS011;31579;52.354;16.974;2023-04-24T19:02:51;4.80;;;2.40;;
45863;SDS011;31579;52.354;16.974;2023-04-24T19:07:51;4.80;;;2.40;;
45863;SDS011;31579;52.354;16.974;2023-04-24T19:12:51;8.00;;;3.40;;
45863;SDS011;31579;52.354;16.974;2023-04-24T19:17:51;8.00;;;3.40;;
45863;SDS011;31579;52.354;16.974;2023-04-24T19:19:34;8.00;;;3.40;;
45863;SDS011;31579;52.354;16.974;2023-04-24T19:24:33;6.50;;;3.40;;
45863;SDS011;31579;52.354;16.974;2023-04-24T19:29:33;6.50;;;3.40;;
45863;SDS011;31579;52.354;16.974;2023-04-24T19:34:33;7.70;;;4.30;;
45863;SDS011;31579;52.354;16.974;2023-04-24T19:39:33;7.70;;;4.30;;
45863;SDS011;31579;52.354;16.974;2023-04-24T19:44:33;9.80;;;5.40;;
45863;SDS011;31579;52.354;16.974;2023-04-24T19:49:34;9.80;;;5.40;;
45863;SDS011;31579;52.354;16.974;2023-04-24T19:52:54;11.40;;;6.20;;
45863;SDS011;31579;52.354;16.974;2023-04-24T19:54:04;11.40;;;6.20;;
45863;SDS011;31579;52.354;16.974;2023-04-24T19:59:02;11.40;;;6.20;;
45863;SDS011;31579;52.354;16.974;2023-04-24T20:04:02;10.60;;;5.80;;
45863;SDS011;31579;52.354;16.974;2023-04-24T20:09:02;10.60;;;5.80;;
45863;SDS011;31579;52.354;16.974;2023-04-24T20:12:25;13.50;;;7.50;;
45863;SDS011;31579;52.354;16.974;2023-04-24T20:17:23;13.50;;;7.50;;
45863;SDS011;31579;52.354;16.974;2023-04-24T20:22:23;14.50;;;7.80;;
45863;SDS011;31579;52.354;16.974;2023-04-24T20:27:23;14.50;;;7.80;;
45863;SDS011;31579;52.354;16.974;2023-04-24T20:32:23;16.70;;;9.00;;
45863;SDS011;31579;52.354;16.974;2023-04-24T20:37:23;16.70;;;9.00;;
45863;SDS011;31579;52.354;16.974;2023-04-24T20:42:25;15.30;;;8.80;;
45863;SDS011;31579;52.354;16.974;2023-04-24T20:47:23;15.30;;;8.80;;
45863;SDS011;31579;52.354;16.974;2023-04-24T20:52:23;15.70;;;9.00;;
45863;SDS011;31579;52.354;16.974;2023-04-24T20:57:23;15.70;;;9.00;;
45863;SDS011;31579;52.354;16.974;2023-04-24T21:02:23;11.40;;;6.20;;
45863;SDS011;31579;52.354;16.974;2023-04-24T21:07:23;11.40;;;6.20;;
45863;SDS011;31579;52.354;16.974;2023-04-24T21:12:23;10.20;;;5.60;;
45863;SDS011;31579;52.354;16.974;2023-04-24T21:17:23;10.20;;;5.60;;
45863;SDS011;31579;52.354;16.974;2023-04-24T21:22:24;9.50;;;5.50;;
45863;SDS011;31579;52.354;16.974;2023-04-24T21:27:23;9.50;;;5.50;;
45863;SDS011;31579;52.354;16.974;2023-04-24T21:32:23;11.00;;;5.90;;
45863;SDS011;31579;52.354;16.974;2023-04-24T21:37:24;11.00;;;5.90;;
45863;SDS011;31579;52.354;16.974;2023-04-24T21:42:23;11.60;;;5.80;;
45863;SDS011;31579;52.354;16.974;2023-04-24T21:47:27;11.60;;;5.80;;
45863;SDS011;31579;52.354;16.974;2023-04-24T21:52:23;11.20;;;6.50;;
45863;SDS011;31579;52.354;16.974;2023-04-24T21:57:23;11.20;;;6.50;;
45863;SDS011;31579;52.354;16.974;2023-04-24T22:02:23;9.70;;;5.40;;
45863;SDS011;31579;52.354;16.974;2023-04-24T22:07:23;9.70;;;5.40;;
45863;SDS011;31579;52.354;16.974;2023-04-24T22:12:23;8.70;;;5.00;;
45863;SDS011;31579;52.354;16.974;2023-04-24T22:17:23;8.70;;;5.00;;
45863;SDS011;31579;52.354;16.974;2023-04-24T22:22:24;7.70;;;4.70;;
45863;SDS011;31579;52.354;16.974;2023-04-24T22:27:23;7.70;;;4.70;;
45863;SDS011;31579;52.354;16.974;2023-04-24T22:32:24;7.70;;;4.70;;
45863;SDS011;31579;52.354;16.974;2023-04-24T22:37:23;7.00;;;4.10;;
45863;SDS011;31579;52.354;16.974;2023-04-24T22:42:23;7.90;;;4.20;;
45863;SDS011;31579;52.354;16.974;2023-04-24T22:47:23;7.90;;;4.20;;
45863;SDS011;31579;52.354;16.974;2023-04-24T22:52:27;8.50;;;4.50;;
45863;SDS011;31579;52.354;16.974;2023-04-24T22:54:32;8.50;;;4.50;;
45863;SDS011;31579;52.354;16.974;2023-04-24T22:59:31;8.50;;;4.50;;
45863;SDS011;31579;52.354;16.974;2023-04-24T23:04:30;6.90;;;3.90;;
45863;SDS011;31579;52.354;16.974;2023-04-24T23:09:35;6.90;;;3.90;;
45863;SDS011;31579;52.354;16.974;2023-04-24T23:10:44;6.90;;;3.90;;
45863;SDS011;31579;52.354;16.974;2023-04-24T23:15:42;6.90;;;3.90;;
45863;SDS011;31579;52.354;16.974;2023-04-24T23:20:42;6.90;;;3.90;;
45863;SDS011;31579;52.354;16.974;2023-04-24T23:25:46;5.90;;;3.20;;
45863;SDS011;31579;52.354;16.974;2023-04-24T23:30:42;5.90;;;3.20;;
45863;SDS011;31579;52.354;16.974;2023-04-24T23:35:42;5.00;;;3.10;;
45863;SDS011;31579;52.354;16.974;2023-04-24T23:40:42;5.00;;;3.10;;
45863;SDS011;31579;52.354;16.974;2023-04-24T23:45:42;8.90;;;4.00;;
45863;SDS011;31579;52.354;16.974;2023-04-24T23:47:04;8.90;;;4.00;;
45863;SDS011;31579;52.354;16.974;2023-04-24T23:52:02;12.90;;;5.20;;
45863;SDS011;31579;52.354;16.974;2023-04-24T23:57:02;12.90;;;5.20;;
